sensor_id;sensor_type;location;lat;lon;timestamp;temperature;humidity
9403;DHT22;4741;49.834;10.740;2022-07-18T00:00:15;14.60;99.90
9403;DHT22;4741;49.834;10.740;2022-07-18T00:02:42;14.50;99.90
9403;DHT22;4741;49.834;10.740;2022-07-18T00:05:08;14.70;99.90
9403;DHT22;4741;49.834;10.740;2022-07-18T00:10:03;13.60;99.90
9403;DHT22;4741;49.834;10.740;2022-07-18T00:14:57;13.50;99.90
9403;DHT22;4741;49.834;10.740;2022-07-18T00:19:50;13.40;99.90
9403;DHT22;4741;49.834;10.740;2022-07-18T00:22:17;14.20;99.90
9403;DHT22;4741;49.834;10.740;2022-07-18T00:24:44;14.90;99.90
9403;DHT22;4741;49.834;10.740;2022-07-18T00:27:10;13.10;99.90
9403;DHT22;4741;49.834;10.740;2022-07-18T00:29:37;14.60;99.90
9403;DHT22;4741;49.834;10.740;2022-07-18T00:32:06;13.10;99.90
9403;DHT22;4741;49.834;10.740;2022-07-18T00:37:00;13.10;99.90
9403;DHT22;4741;49.834;10.740;2022-07-18T00:39:27;13.20;99.90
9403;DHT22;4741;49.834;10.740;2022-07-18T00:41:54;13.10;99.90
9403;DHT22;4741;49.834;10.740;2022-07-18T00:44:22;13.90;99.90
9403;DHT22;4741;49.834;10.740;2022-07-18T00:46:50;12.10;99.90
9403;DHT22;4741;49.834;10.740;2022-07-18T00:49:17;14.30;99.90
9403;DHT22;4741;49.834;10.740;2022-07-18T00:54:11;12.70;99.90
9403;DHT22;4741;49.834;10.740;2022-07-18T00:56:38;14.00;99.90
9403;DHT22;4741;49.834;10.740;2022-07-18T00:59:05;13.50;99.90
9403;DHT22;4741;49.834;10.740;2022-07-18T01:01:32;12.50;99.90
9403;DHT22;4741;49.834;10.740;2022-07-18T01:04:23;12.40;99.90
9403;DHT22;4741;49.834;10.740;2022-07-18T01:06:50;12.30;99.90
9403;DHT22;4741;49.834;10.740;2022-07-18T01:09:18;12.70;99.90
9403;DHT22;4741;49.834;10.740;2022-07-18T01:11:45;12.40;99.90
9403;DHT22;4741;49.834;10.740;2022-07-18T01:14:12;12.60;99.90
9403;DHT22;4741;49.834;10.740;2022-07-18T01:16:40;12.90;99.90
9403;DHT22;4741;49.834;10.740;2022-07-18T01:19:06;12.60;99.90
9403;DHT22;4741;49.834;10.740;2022-07-18T01:21:33;12.60;99.90
9403;DHT22;4741;49.834;10.740;2022-07-18T01:24:00;12.40;99.90
9403;DHT22;4741;49.834;10.740;2022-07-18T01:29:50;12.60;99.90
9403;DHT22;4741;49.834;10.740;2022-07-18T01:32:17;12.40;99.90
9403;DHT22;4741;49.834;10.740;2022-07-18T01:34:45;12.00;99.90
9403;DHT22;4741;49.834;10.740;2022-07-18T01:37:16;11.90;99.90
9403;DHT22;4741;49.834;10.740;2022-07-18T01:43:28;12.20;99.90
9403;DHT22;4741;49.834;10.740;2022-07-18T01:45:55;12.10;99.90
9403;DHT22;4741;49.834;10.740;2022-07-18T01:48:24;12.20;99.90
9403;DHT22;4741;49.834;10.740;2022-07-18T01:51:24;12.10;99.90
9403;DHT22;4741;49.834;10.740;2022-07-18T01:53:57;12.10;99.90
9403;DHT22;4741;49.834;10.740;2022-07-18T01:56:50;11.90;99.90
9403;DHT22;4741;49.834;10.740;2022-07-18T01:59:17;11.50;99.90
9403;DHT22;4741;49.834;10.740;2022-07-18T02:01:44;11.30;99.90
9403;DHT22;4741;49.834;10.740;2022-07-18T02:04:11;11.30;99.90
9403;DHT22;4741;49.834;10.740;2022-07-18T02:06:38;11.50;99.90
9403;DHT22;4741;49.834;10.740;2022-07-18T02:09:05;11.40;99.90
9403;DHT22;4741;49.834;10.740;2022-07-18T02:11:33;11.10;99.90
9403;DHT22;4741;49.834;10.740;2022-07-18T02:14:00;10.80;99.90
9403;DHT22;4741;49.834;10.740;2022-07-18T02:18:55;11.70;99.90
9403;DHT22;4741;49.834;10.740;2022-07-18T02:21:22;12.00;99.90
9403;DHT22;4741;49.834;10.740;2022-07-18T02:23:49;11.70;99.90
9403;DHT22;4741;49.834;10.740;2022-07-18T02:28:45;11.70;99.90
9403;DHT22;4741;49.834;10.740;2022-07-18T02:31:12;10.80;99.90
9403;DHT22;4741;49.834;10.740;2022-07-18T02:33:38;11.10;99.90
9403;DHT22;4741;49.834;10.740;2022-07-18T02:38:36;11.30;99.90
9403;DHT22;4741;49.834;10.740;2022-07-18T02:41:03;11.00;99.90
9403;DHT22;4741;49.834;10.740;2022-07-18T02:43:29;11.00;99.90
9403;DHT22;4741;49.834;10.740;2022-07-18T02:45:56;11.00;99.90
9403;DHT22;4741;49.834;10.740;2022-07-18T02:48:23;11.50;99.90
9403;DHT22;4741;49.834;10.740;2022-07-18T02:50:51;11.40;99.90
9403;DHT22;4741;49.834;10.740;2022-07-18T02:53:18;11.20;99.90
9403;DHT22;4741;49.834;10.740;2022-07-18T02:55:45;11.20;99.90
9403;DHT22;4741;49.834;10.740;2022-07-18T02:58:18;12.20;99.90
9403;DHT22;4741;49.834;10.740;2022-07-18T03:00:45;11.20;99.90
9403;DHT22;4741;49.834;10.740;2022-07-18T03:03:11;11.20;99.90
9403;DHT22;4741;49.834;10.740;2022-07-18T03:05:38;11.30;99.90
9403;DHT22;4741;49.834;10.740;2022-07-18T03:08:05;10.80;99.90
9403;DHT22;4741;49.834;10.740;2022-07-18T03:10:33;11.30;99.90
9403;DHT22;4741;49.834;10.740;2022-07-18T03:13:03;10.60;99.90
9403;DHT22;4741;49.834;10.740;2022-07-18T03:15:40;10.50;99.90
9403;DHT22;4741;49.834;10.740;2022-07-18T03:18:07;10.60;99.90
9403;DHT22;4741;49.834;10.740;2022-07-18T03:20:41;10.60;99.90
9403;DHT22;4741;49.834;10.740;2022-07-18T03:23:08;11.20;99.90
9403;DHT22;4741;49.834;10.740;2022-07-18T03:25:40;9.90;99.90
9403;DHT22;4741;49.834;10.740;2022-07-18T03:28:07;10.70;99.90
9403;DHT22;4741;49.834;10.740;2022-07-18T03:30:33;10.70;99.90
9403;DHT22;4741;49.834;10.740;2022-07-18T03:33:01;10.40;99.90
9403;DHT22;4741;49.834;10.740;2022-07-18T03:35:32;10.60;99.90
9403;DHT22;4741;49.834;10.740;2022-07-18T03:38:03;10.10;99.90
9403;DHT22;4741;49.834;10.740;2022-07-18T03:40:31;10.80;99.90
9403;DHT22;4741;49.834;10.740;2022-07-18T03:43:03;10.70;99.90
9403;DHT22;4741;49.834;10.740;2022-07-18T03:45:30;10.60;99.90
9403;DHT22;4741;49.834;10.740;2022-07-18T03:47:57;11.40;99.90
9403;DHT22;4741;49.834;10.740;2022-07-18T03:50:23;10.30;99.90
9403;DHT22;4741;49.834;10.740;2022-07-18T03:52:50;10.40;99.90
9403;DHT22;4741;49.834;10.740;2022-07-18T03:55:17;10.80;99.90
9403;DHT22;4741;49.834;10.740;2022-07-18T03:57:53;10.70;99.90
9403;DHT22;4741;49.834;10.740;2022-07-18T04:00:27;10.50;99.90
9403;DHT22;4741;49.834;10.740;2022-07-18T04:05:26;10.50;99.90
9403;DHT22;4741;49.834;10.740;2022-07-18T04:07:54;10.20;99.90
9403;DHT22;4741;49.834;10.740;2022-07-18T04:10:21;10.90;99.90
9403;DHT22;4741;49.834;10.740;2022-07-18T04:12:51;10.50;99.90
9403;DHT22;4741;49.834;10.740;2022-07-18T04:15:20;11.30;99.90
9403;DHT22;4741;49.834;10.740;2022-07-18T04:17:47;10.70;99.90
9403;DHT22;4741;49.834;10.740;2022-07-18T04:20:14;12.30;99.90
9403;DHT22;4741;49.834;10.740;2022-07-18T04:22:45;10.50;99.90
9403;DHT22;4741;49.834;10.740;2022-07-18T04:25:12;11.10;99.90
9403;DHT22;4741;49.834;10.740;2022-07-18T04:27:39;10.40;99.90
9403;DHT22;4741;49.834;10.740;2022-07-18T04:30:06;12.30;99.90
9403;DHT22;4741;49.834;10.740;2022-07-18T04:32:33;11.00;99.90
9403;DHT22;4741;49.834;10.740;2022-07-18T04:34:59;10.00;99.90
9403;DHT22;4741;49.834;10.740;2022-07-18T04:37:28;10.00;99.90
9403;DHT22;4741;49.834;10.740;2022-07-18T04:39:55;12.60;99.90
9403;DHT22;4741;49.834;10.740;2022-07-18T04:44:49;11.40;99.90
9403;DHT22;4741;49.834;10.740;2022-07-18T04:50:14;11.70;99.90
9403;DHT22;4741;49.834;10.740;2022-07-18T04:52:41;11.10;99.90
9403;DHT22;4741;49.834;10.740;2022-07-18T04:55:08;10.60;99.90
9403;DHT22;4741;49.834;10.740;2022-07-18T04:57:36;11.70;99.90
9403;DHT22;4741;49.834;10.740;2022-07-18T05:00:04;11.80;99.90
9403;DHT22;4741;49.834;10.740;2022-07-18T05:02:31;11.90;99.90
9403;DHT22;4741;49.834;10.740;2022-07-18T05:04:58;12.00;99.90
9403;DHT22;4741;49.834;10.740;2022-07-18T05:07:25;12.10;99.90
9403;DHT22;4741;49.834;10.740;2022-07-18T05:09:52;12.10;99.90
9403;DHT22;4741;49.834;10.740;2022-07-18T05:12:18;12.10;99.90
9403;DHT22;4741;49.834;10.740;2022-07-18T05:14:50;13.20;99.90
9403;DHT22;4741;49.834;10.740;2022-07-18T05:17:25;12.50;99.90
9403;DHT22;4741;49.834;10.740;2022-07-18T05:19:52;13.20;99.90
9403;DHT22;4741;49.834;10.740;2022-07-18T05:22:19;12.60;99.90
9403;DHT22;4741;49.834;10.740;2022-07-18T05:24:46;12.60;99.90
9403;DHT22;4741;49.834;10.740;2022-07-18T05:27:12;12.80;99.90
9403;DHT22;4741;49.834;10.740;2022-07-18T05:32:06;12.90;99.90
9403;DHT22;4741;49.834;10.740;2022-07-18T05:37:00;13.40;99.90
9403;DHT22;4741;49.834;10.740;2022-07-18T05:39:27;13.50;99.90
9403;DHT22;4741;49.834;10.740;2022-07-18T05:41:54;13.70;99.90
9403;DHT22;4741;49.834;10.740;2022-07-18T05:44:21;13.80;99.90
9403;DHT22;4741;49.834;10.740;2022-07-18T05:46:47;14.00;99.90
9403;DHT22;4741;49.834;10.740;2022-07-18T05:49:15;14.10;99.90
9403;DHT22;4741;49.834;10.740;2022-07-18T05:51:41;14.30;99.90
9403;DHT22;4741;49.834;10.740;2022-07-18T05:54:08;14.50;99.90
9403;DHT22;4741;49.834;10.740;2022-07-18T05:56:35;14.50;99.90
9403;DHT22;4741;49.834;10.740;2022-07-18T05:59:02;14.60;99.90
9403;DHT22;4741;49.834;10.740;2022-07-18T06:01:29;14.80;99.90
9403;DHT22;4741;49.834;10.740;2022-07-18T06:03:56;15.10;99.90
9403;DHT22;4741;49.834;10.740;2022-07-18T06:06:23;15.30;99.90
9403;DHT22;4741;49.834;10.740;2022-07-18T06:08:50;15.40;99.90
9403;DHT22;4741;49.834;10.740;2022-07-18T06:11:17;15.50;99.90
9403;DHT22;4741;49.834;10.740;2022-07-18T06:13:44;15.80;99.90
9403;DHT22;4741;49.834;10.740;2022-07-18T06:16:11;16.10;99.90
9403;DHT22;4741;49.834;10.740;2022-07-18T06:18:38;16.10;99.90
9403;DHT22;4741;49.834;10.740;2022-07-18T06:21:05;16.20;99.90
9403;DHT22;4741;49.834;10.740;2022-07-18T06:23:31;16.40;99.90
9403;DHT22;4741;49.834;10.740;2022-07-18T06:25:58;16.90;99.90
9403;DHT22;4741;49.834;10.740;2022-07-18T06:28:25;16.80;99.90
9403;DHT22;4741;49.834;10.740;2022-07-18T06:30:52;16.90;99.90
9403;DHT22;4741;49.834;10.740;2022-07-18T06:35:46;17.30;99.90
9403;DHT22;4741;49.834;10.740;2022-07-18T06:40:40;17.70;99.90
9403;DHT22;4741;49.834;10.740;2022-07-18T06:45:34;18.10;99.90
9403;DHT22;4741;49.834;10.740;2022-07-18T06:48:01;17.20;99.90
9403;DHT22;4741;49.834;10.740;2022-07-18T06:50:27;17.60;99.90
9403;DHT22;4741;49.834;10.740;2022-07-18T06:55:21;18.80;99.90
9403;DHT22;4741;49.834;10.740;2022-07-18T07:19:57;21.00;99.90
9403;DHT22;4741;49.834;10.740;2022-07-18T07:22:23;20.50;99.90
9403;DHT22;4741;49.834;10.740;2022-07-18T07:24:50;21.80;99.90
9403;DHT22;4741;49.834;10.740;2022-07-18T07:27:17;20.40;99.90
9403;DHT22;4741;49.834;10.740;2022-07-18T07:29:44;20.40;99.90
9403;DHT22;4741;49.834;10.740;2022-07-18T08:18:51;23.40;99.90
9403;DHT22;4741;49.834;10.740;2022-07-18T08:21:17;22.90;99.90
9403;DHT22;4741;49.834;10.740;2022-07-18T08:23:44;23.70;99.90
9403;DHT22;4741;49.834;10.740;2022-07-18T08:28:40;23.50;99.90
9403;DHT22;4741;49.834;10.740;2022-07-18T08:31:06;23.90;99.70
9403;DHT22;4741;49.834;10.740;2022-07-18T08:33:33;22.70;99.90
9403;DHT22;4741;49.834;10.740;2022-07-18T08:36:00;24.10;92.80
9403;DHT22;4741;49.834;10.740;2022-07-18T08:38:27;25.40;95.10
9403;DHT22;4741;49.834;10.740;2022-07-18T08:40:54;24.70;97.00
9403;DHT22;4741;49.834;10.740;2022-07-18T08:43:21;24.40;96.40
9403;DHT22;4741;49.834;10.740;2022-07-18T08:48:18;25.00;96.70
9403;DHT22;4741;49.834;10.740;2022-07-18T08:50:45;24.10;98.70
9403;DHT22;4741;49.834;10.740;2022-07-18T08:53:12;24.30;97.90
9403;DHT22;4741;49.834;10.740;2022-07-18T09:00:53;25.20;99.90
9403;DHT22;4741;49.834;10.740;2022-07-18T09:15:44;26.30;99.90
9403;DHT22;4741;49.834;10.740;2022-07-18T09:18:26;26.40;97.70
9403;DHT22;4741;49.834;10.740;2022-07-18T09:21:09;26.50;99.90
9403;DHT22;4741;49.834;10.740;2022-07-18T09:23:37;26.60;99.90
9403;DHT22;4741;49.834;10.740;2022-07-18T09:26:04;27.90;99.80
9403;DHT22;4741;49.834;10.740;2022-07-18T09:31:33;27.00;99.90
9403;DHT22;4741;49.834;10.740;2022-07-18T09:34:02;26.80;98.50
9403;DHT22;4741;49.834;10.740;2022-07-18T09:36:29;26.40;88.10
9403;DHT22;4741;49.834;10.740;2022-07-18T09:38:56;27.30;89.30
9403;DHT22;4741;49.834;10.740;2022-07-18T09:41:24;27.60;96.10
9403;DHT22;4741;49.834;10.740;2022-07-18T09:43:51;27.20;98.70
9403;DHT22;4741;49.834;10.740;2022-07-18T09:46:18;26.90;81.90
9403;DHT22;4741;49.834;10.740;2022-07-18T09:48:45;28.80;85.10
9403;DHT22;4741;49.834;10.740;2022-07-18T09:51:12;26.40;83.00
9403;DHT22;4741;49.834;10.740;2022-07-18T09:53:42;25.80;86.40
9403;DHT22;4741;49.834;10.740;2022-07-18T09:58:40;28.70;83.20
9403;DHT22;4741;49.834;10.740;2022-07-18T10:01:08;26.50;75.10
9403;DHT22;4741;49.834;10.740;2022-07-18T10:03:36;27.80;68.00
9403;DHT22;4741;49.834;10.740;2022-07-18T10:06:03;28.90;78.30
9403;DHT22;4741;49.834;10.740;2022-07-18T10:08:43;28.20;78.20
9403;DHT22;4741;49.834;10.740;2022-07-18T10:11:10;28.60;90.10
9403;DHT22;4741;49.834;10.740;2022-07-18T10:18:34;29.00;92.30
9403;DHT22;4741;49.834;10.740;2022-07-18T10:21:04;29.00;93.00
9403;DHT22;4741;49.834;10.740;2022-07-18T10:23:38;29.30;92.20
9403;DHT22;4741;49.834;10.740;2022-07-18T10:31:26;29.10;60.00
9403;DHT22;4741;49.834;10.740;2022-07-18T10:33:55;29.20;60.00
9403;DHT22;4741;49.834;10.740;2022-07-18T10:36:39;29.20;73.20
9403;DHT22;4741;49.834;10.740;2022-07-18T10:41:35;29.10;63.80
9403;DHT22;4741;49.834;10.740;2022-07-18T10:57:30;30.70;55.30
9403;DHT22;4741;49.834;10.740;2022-07-18T11:00:07;30.90;57.10
9403;DHT22;4741;49.834;10.740;2022-07-18T11:05:31;31.10;55.80
9403;DHT22;4741;49.834;10.740;2022-07-18T11:13:33;31.10;56.10
9403;DHT22;4741;49.834;10.740;2022-07-18T11:16:21;31.10;54.80
9403;DHT22;4741;49.834;10.740;2022-07-18T11:23:44;31.90;53.40
9403;DHT22;4741;49.834;10.740;2022-07-18T11:26:18;31.10;51.60
9403;DHT22;4741;49.834;10.740;2022-07-18T11:28:55;32.10;52.40
9403;DHT22;4741;49.834;10.740;2022-07-18T11:31:22;31.50;52.60
9403;DHT22;4741;49.834;10.740;2022-07-18T11:33:49;31.90;53.20
9403;DHT22;4741;49.834;10.740;2022-07-18T11:38:48;32.50;51.50
9403;DHT22;4741;49.834;10.740;2022-07-18T11:41:14;32.70;51.70
9403;DHT22;4741;49.834;10.740;2022-07-18T11:43:43;33.00;49.20
9403;DHT22;4741;49.834;10.740;2022-07-18T11:46:13;33.60;48.00
9403;DHT22;4741;49.834;10.740;2022-07-18T11:48:43;33.60;49.50
9403;DHT22;4741;49.834;10.740;2022-07-18T11:51:14;34.70;50.20
9403;DHT22;4741;49.834;10.740;2022-07-18T11:53:48;33.30;49.90
9403;DHT22;4741;49.834;10.740;2022-07-18T11:56:14;33.40;48.50
9403;DHT22;4741;49.834;10.740;2022-07-18T11:58:42;34.60;50.30
9403;DHT22;4741;49.834;10.740;2022-07-18T12:01:09;34.30;54.60
9403;DHT22;4741;49.834;10.740;2022-07-18T12:03:39;33.40;49.90
9403;DHT22;4741;49.834;10.740;2022-07-18T12:06:19;34.40;68.90
9403;DHT22;4741;49.834;10.740;2022-07-18T12:11:15;32.70;87.70
9403;DHT22;4741;49.834;10.740;2022-07-18T12:13:48;33.30;67.80
9403;DHT22;4741;49.834;10.740;2022-07-18T12:16:29;33.60;48.40
9403;DHT22;4741;49.834;10.740;2022-07-18T12:19:00;33.80;48.80
9403;DHT22;4741;49.834;10.740;2022-07-18T12:24:29;33.90;51.70
9403;DHT22;4741;49.834;10.740;2022-07-18T12:27:08;34.10;51.40
9403;DHT22;4741;49.834;10.740;2022-07-18T12:32:25;34.10;48.00
9403;DHT22;4741;49.834;10.740;2022-07-18T12:34:55;34.00;48.70
9403;DHT22;4741;49.834;10.740;2022-07-18T12:37:26;34.50;47.40
9403;DHT22;4741;49.834;10.740;2022-07-18T12:39:57;33.90;45.80
9403;DHT22;4741;49.834;10.740;2022-07-18T12:42:44;34.10;46.00
9403;DHT22;4741;49.834;10.740;2022-07-18T12:45:11;35.30;47.60
9403;DHT22;4741;49.834;10.740;2022-07-18T12:47:38;34.70;46.10
9403;DHT22;4741;49.834;10.740;2022-07-18T12:50:05;34.70;47.00
9403;DHT22;4741;49.834;10.740;2022-07-18T12:52:39;35.30;46.60
9403;DHT22;4741;49.834;10.740;2022-07-18T12:55:06;36.20;44.50
9403;DHT22;4741;49.834;10.740;2022-07-18T12:57:33;35.50;46.70
9403;DHT22;4741;49.834;10.740;2022-07-18T13:00:01;36.00;48.20
9403;DHT22;4741;49.834;10.740;2022-07-18T13:02:28;36.40;47.30
9403;DHT22;4741;49.834;10.740;2022-07-18T13:04:56;36.20;46.20
9403;DHT22;4741;49.834;10.740;2022-07-18T13:07:23;37.10;48.40
9403;DHT22;4741;49.834;10.740;2022-07-18T13:09:49;37.10;47.70
9403;DHT22;4741;49.834;10.740;2022-07-18T13:12:19;34.70;45.00
9403;DHT22;4741;49.834;10.740;2022-07-18T13:14:49;36.10;45.50
9403;DHT22;4741;49.834;10.740;2022-07-18T13:17:16;36.50;44.90
9403;DHT22;4741;49.834;10.740;2022-07-18T13:19:43;36.90;43.20
9403;DHT22;4741;49.834;10.740;2022-07-18T13:22:11;37.30;42.80
9403;DHT22;4741;49.834;10.740;2022-07-18T13:24:38;37.90;41.70
9403;DHT22;4741;49.834;10.740;2022-07-18T13:29:32;38.10;41.00
9403;DHT22;4741;49.834;10.740;2022-07-18T13:31:58;38.10;42.20
9403;DHT22;4741;49.834;10.740;2022-07-18T13:34:25;37.00;41.20
9403;DHT22;4741;49.834;10.740;2022-07-18T13:36:52;37.70;41.00
9403;DHT22;4741;49.834;10.740;2022-07-18T13:39:20;37.70;40.00
9403;DHT22;4741;49.834;10.740;2022-07-18T13:41:48;37.80;41.90
9403;DHT22;4741;49.834;10.740;2022-07-18T13:44:15;38.20;39.90
9403;DHT22;4741;49.834;10.740;2022-07-18T13:46:41;36.90;40.00
9403;DHT22;4741;49.834;10.740;2022-07-18T13:49:10;36.50;42.20
9403;DHT22;4741;49.834;10.740;2022-07-18T13:51:37;37.60;41.20
9403;DHT22;4741;49.834;10.740;2022-07-18T13:54:04;38.10;41.30
9403;DHT22;4741;49.834;10.740;2022-07-18T13:56:36;38.20;41.20
9403;DHT22;4741;49.834;10.740;2022-07-18T13:59:03;38.30;41.80
9403;DHT22;4741;49.834;10.740;2022-07-18T14:01:30;37.20;40.70
9403;DHT22;4741;49.834;10.740;2022-07-18T14:03:58;38.30;41.80
9403;DHT22;4741;49.834;10.740;2022-07-18T14:06:25;37.90;40.70
9403;DHT22;4741;49.834;10.740;2022-07-18T14:11:19;37.20;39.70
9403;DHT22;4741;49.834;10.740;2022-07-18T14:16:29;39.20;38.90
9403;DHT22;4741;49.834;10.740;2022-07-18T14:23:56;39.40;38.20
9403;DHT22;4741;49.834;10.740;2022-07-18T14:26:23;39.30;38.50
9403;DHT22;4741;49.834;10.740;2022-07-18T14:28:52;38.50;38.10
9403;DHT22;4741;49.834;10.740;2022-07-18T14:31:19;38.60;38.50
9403;DHT22;4741;49.834;10.740;2022-07-18T14:33:47;38.60;40.00
9403;DHT22;4741;49.834;10.740;2022-07-18T14:36:14;38.60;39.90
9403;DHT22;4741;49.834;10.740;2022-07-18T14:38:42;37.80;40.30
9403;DHT22;4741;49.834;10.740;2022-07-18T14:41:09;38.10;41.30
9403;DHT22;4741;49.834;10.740;2022-07-18T14:46:05;38.30;39.30
9403;DHT22;4741;49.834;10.740;2022-07-18T14:48:36;38.60;40.80
9403;DHT22;4741;49.834;10.740;2022-07-18T14:51:02;39.10;40.90
9403;DHT22;4741;49.834;10.740;2022-07-18T14:53:30;38.20;39.70
9403;DHT22;4741;49.834;10.740;2022-07-18T14:56:00;39.10;38.70
9403;DHT22;4741;49.834;10.740;2022-07-18T15:00:57;37.20;38.70
9403;DHT22;4741;49.834;10.740;2022-07-18T15:03:24;35.90;42.10
9403;DHT22;4741;49.834;10.740;2022-07-18T15:06:10;36.10;42.10
9403;DHT22;4741;49.834;10.740;2022-07-18T15:08:37;36.00;43.60
9403;DHT22;4741;49.834;10.740;2022-07-18T15:11:04;35.90;43.00
9403;DHT22;4741;49.834;10.740;2022-07-18T15:13:31;37.00;41.20
9403;DHT22;4741;49.834;10.740;2022-07-18T15:15:58;36.30;41.60
9403;DHT22;4741;49.834;10.740;2022-07-18T15:18:25;35.60;42.20
9403;DHT22;4741;49.834;10.740;2022-07-18T15:20:52;36.10;42.30
9403;DHT22;4741;49.834;10.740;2022-07-18T15:23:18;35.50;42.00
9403;DHT22;4741;49.834;10.740;2022-07-18T15:25:45;34.30;41.50
9403;DHT22;4741;49.834;10.740;2022-07-18T15:28:18;34.50;43.80
9403;DHT22;4741;49.834;10.740;2022-07-18T15:30:48;35.40;41.30
9403;DHT22;4741;49.834;10.740;2022-07-18T15:33:15;35.40;42.20
9403;DHT22;4741;49.834;10.740;2022-07-18T15:35:42;33.80;44.30
9403;DHT22;4741;49.834;10.740;2022-07-18T15:38:09;34.70;43.50
9403;DHT22;4741;49.834;10.740;2022-07-18T15:40:36;36.20;43.20
9403;DHT22;4741;49.834;10.740;2022-07-18T15:43:03;36.50;41.00
9403;DHT22;4741;49.834;10.740;2022-07-18T15:45:30;36.90;41.30
9403;DHT22;4741;49.834;10.740;2022-07-18T15:47:57;37.10;40.80
9403;DHT22;4741;49.834;10.740;2022-07-18T15:50:24;37.70;41.10
9403;DHT22;4741;49.834;10.740;2022-07-18T15:55:18;38.50;38.30
9403;DHT22;4741;49.834;10.740;2022-07-18T15:57:45;39.00;38.20
9403;DHT22;4741;49.834;10.740;2022-07-18T16:00:12;38.70;39.30
9403;DHT22;4741;49.834;10.740;2022-07-18T16:02:39;36.70;58.60
9403;DHT22;4741;49.834;10.740;2022-07-18T16:05:06;35.80;40.80
9403;DHT22;4741;49.834;10.740;2022-07-18T16:07:32;35.80;42.10
9403;DHT22;4741;49.834;10.740;2022-07-18T16:09:59;35.90;42.50
9403;DHT22;4741;49.834;10.740;2022-07-18T16:12:26;36.30;42.70
9403;DHT22;4741;49.834;10.740;2022-07-18T16:14:53;35.70;41.40
9403;DHT22;4741;49.834;10.740;2022-07-18T16:17:20;35.60;40.10
9403;DHT22;4741;49.834;10.740;2022-07-18T16:19:46;36.40;40.60
9403;DHT22;4741;49.834;10.740;2022-07-18T16:22:16;36.40;40.60
9403;DHT22;4741;49.834;10.740;2022-07-18T16:24:43;35.10;40.80
9403;DHT22;4741;49.834;10.740;2022-07-18T16:27:11;34.40;42.00
9403;DHT22;4741;49.834;10.740;2022-07-18T16:29:38;34.10;53.20
9403;DHT22;4741;49.834;10.740;2022-07-18T16:32:05;33.10;43.70
9403;DHT22;4741;49.834;10.740;2022-07-18T16:34:31;32.80;43.50
9403;DHT22;4741;49.834;10.740;2022-07-18T16:39:26;32.10;43.00
9403;DHT22;4741;49.834;10.740;2022-07-18T16:41:52;32.10;46.10
9403;DHT22;4741;49.834;10.740;2022-07-18T16:44:28;32.00;44.60
9403;DHT22;4741;49.834;10.740;2022-07-18T16:46:54;32.30;44.80
9403;DHT22;4741;49.834;10.740;2022-07-18T16:49:21;32.90;44.50
9403;DHT22;4741;49.834;10.740;2022-07-18T16:51:48;34.00;42.40
9403;DHT22;4741;49.834;10.740;2022-07-18T16:54:15;33.80;41.50
9403;DHT22;4741;49.834;10.740;2022-07-18T16:56:42;33.80;43.30
9403;DHT22;4741;49.834;10.740;2022-07-18T16:59:09;33.10;43.30
9403;DHT22;4741;49.834;10.740;2022-07-18T17:01:35;32.80;44.10
9403;DHT22;4741;49.834;10.740;2022-07-18T17:04:09;32.70;44.40
9403;DHT22;4741;49.834;10.740;2022-07-18T17:06:36;32.60;43.90
9403;DHT22;4741;49.834;10.740;2022-07-18T17:09:03;32.50;44.00
9403;DHT22;4741;49.834;10.740;2022-07-18T17:11:30;32.40;45.40
9403;DHT22;4741;49.834;10.740;2022-07-18T17:14:03;31.10;44.60
9403;DHT22;4741;49.834;10.740;2022-07-18T17:16:30;32.30;45.00
9403;DHT22;4741;49.834;10.740;2022-07-18T17:18:57;32.10;45.60
9403;DHT22;4741;49.834;10.740;2022-07-18T17:21:23;32.10;52.20
9403;DHT22;4741;49.834;10.740;2022-07-18T17:26:21;31.60;60.20
9403;DHT22;4741;49.834;10.740;2022-07-18T17:28:48;31.80;46.10
9403;DHT22;4741;49.834;10.740;2022-07-18T17:31:15;31.40;46.20
9403;DHT22;4741;49.834;10.740;2022-07-18T17:33:42;31.30;46.00
9403;DHT22;4741;49.834;10.740;2022-07-18T17:36:09;32.10;47.30
9403;DHT22;4741;49.834;10.740;2022-07-18T17:38:35;31.10;46.50
9403;DHT22;4741;49.834;10.740;2022-07-18T17:41:02;30.00;45.50
9403;DHT22;4741;49.834;10.740;2022-07-18T17:43:35;30.80;46.80
9403;DHT22;4741;49.834;10.740;2022-07-18T17:46:02;30.60;47.30
9403;DHT22;4741;49.834;10.740;2022-07-18T17:48:29;30.60;47.00
9403;DHT22;4741;49.834;10.740;2022-07-18T17:50:56;30.50;47.30
9403;DHT22;4741;49.834;10.740;2022-07-18T17:53:23;30.50;46.90
9403;DHT22;4741;49.834;10.740;2022-07-18T17:55:50;31.20;48.20
9403;DHT22;4741;49.834;10.740;2022-07-18T17:58:17;30.40;48.10
9403;DHT22;4741;49.834;10.740;2022-07-18T18:00:44;29.30;47.80
9403;DHT22;4741;49.834;10.740;2022-07-18T18:03:10;30.20;48.60
9403;DHT22;4741;49.834;10.740;2022-07-18T18:05:37;29.60;47.60
9403;DHT22;4741;49.834;10.740;2022-07-18T18:08:04;31.10;49.70
9403;DHT22;4741;49.834;10.740;2022-07-18T18:10:32;30.40;48.90
9403;DHT22;4741;49.834;10.740;2022-07-18T18:12:59;29.80;48.70
9403;DHT22;4741;49.834;10.740;2022-07-18T18:15:26;29.70;48.80
9403;DHT22;4741;49.834;10.740;2022-07-18T18:17:52;30.50;49.60
9403;DHT22;4741;49.834;10.740;2022-07-18T18:20:19;29.60;49.20
9403;DHT22;4741;49.834;10.740;2022-07-18T18:22:46;30.20;49.70
9403;DHT22;4741;49.834;10.740;2022-07-18T18:25:18;28.70;48.80
9403;DHT22;4741;49.834;10.740;2022-07-18T18:27:45;29.50;49.30
9403;DHT22;4741;49.834;10.740;2022-07-18T18:30:11;30.40;50.40
9403;DHT22;4741;49.834;10.740;2022-07-18T18:32:38;29.00;49.90
9403;DHT22;4741;49.834;10.740;2022-07-18T18:35:06;29.00;49.70
9403;DHT22;4741;49.834;10.740;2022-07-18T18:37:33;29.00;49.60
9403;DHT22;4741;49.834;10.740;2022-07-18T18:44:54;28.60;50.20
9403;DHT22;4741;49.834;10.740;2022-07-18T18:47:20;28.50;51.20
9403;DHT22;4741;49.834;10.740;2022-07-18T18:49:47;28.10;51.60
9403;DHT22;4741;49.834;10.740;2022-07-18T18:52:14;28.30;51.70
9403;DHT22;4741;49.834;10.740;2022-07-18T18:54:41;28.70;52.40
9403;DHT22;4741;49.834;10.740;2022-07-18T18:57:08;28.00;54.60
9403;DHT22;4741;49.834;10.740;2022-07-18T18:59:34;27.80;63.70
9403;DHT22;4741;49.834;10.740;2022-07-18T19:02:01;27.70;55.50
9403;DHT22;4741;49.834;10.740;2022-07-18T19:04:28;27.60;56.70
9403;DHT22;4741;49.834;10.740;2022-07-18T19:06:54;27.20;58.20
9403;DHT22;4741;49.834;10.740;2022-07-18T19:09:21;27.20;59.20
9403;DHT22;4741;49.834;10.740;2022-07-18T19:14:16;26.60;62.70
9403;DHT22;4741;49.834;10.740;2022-07-18T19:16:43;26.30;62.40
9403;DHT22;4741;49.834;10.740;2022-07-18T19:19:10;26.10;62.50
9403;DHT22;4741;49.834;10.740;2022-07-18T19:24:04;25.70;92.20
9403;DHT22;4741;49.834;10.740;2022-07-18T19:29:01;25.40;64.60
9403;DHT22;4741;49.834;10.740;2022-07-18T19:31:28;25.30;65.30
9403;DHT22;4741;49.834;10.740;2022-07-18T19:36:22;24.90;66.90
9403;DHT22;4741;49.834;10.740;2022-07-18T19:38:49;25.60;68.30
9403;DHT22;4741;49.834;10.740;2022-07-18T19:41:16;25.50;69.30
9403;DHT22;4741;49.834;10.740;2022-07-18T19:43:42;24.00;71.70
9403;DHT22;4741;49.834;10.740;2022-07-18T19:48:36;24.00;68.60